createdAt,value
2022-11-14T00:01:21.557Z,2.80
2022-11-14T00:03:51.929Z,2.80
2022-11-14T00:06:19.989Z,2.80
2022-11-14T00:08:47.983Z,2.90
2022-11-14T00:11:16.013Z,2.80
2022-11-14T00:13:46.401Z,2.70
2022-11-14T00:16:14.419Z,2.80
2022-11-14T00:18:42.791Z,2.80
2022-11-14T00:21:10.790Z,2.80
2022-11-14T00:23:38.792Z,2.80
2022-11-14T00:26:06.874Z,3.00
2022-11-14T00:28:34.901Z,3.00
2022-11-14T00:31:04.300Z,2.90
2022-11-14T00:33:32.306Z,3.00
2022-11-14T00:36:00.288Z,2.90
2022-11-14T00:38:28.640Z,2.80
2022-11-14T00:40:57.033Z,2.70
2022-11-14T00:43:25.081Z,2.70
2022-11-14T00:45:53.065Z,2.80
2022-11-14T00:48:22.693Z,2.80
2022-11-14T00:50:50.997Z,2.80
2022-11-14T00:53:18.968Z,2.70
2022-11-14T00:55:46.971Z,2.70
2022-11-14T00:58:15.094Z,2.60
2022-11-14T01:00:43.111Z,2.70
2022-11-14T01:03:11.101Z,2.80
2022-11-14T01:05:43.630Z,2.90
2022-11-14T01:08:11.809Z,2.80
2022-11-14T01:10:41.699Z,2.80
2022-11-14T01:13:09.685Z,2.70
2022-11-14T01:15:40.283Z,2.70
2022-11-14T01:18:08.501Z,2.60
2022-11-14T01:20:39.166Z,2.50
2022-11-14T01:23:09.022Z,2.50
2022-11-14T01:25:37.603Z,2.40
2022-11-14T01:28:07.932Z,2.30
2022-11-14T01:30:36.067Z,2.30
2022-11-14T01:33:04.173Z,2.20
2022-11-14T01:35:32.692Z,2.10
2022-11-14T01:38:00.899Z,2.10
2022-11-14T01:40:30.566Z,2.10
2022-11-14T01:43:25.081Z,2.10
2022-11-14T01:45:56.433Z,2.00
2022-11-14T01:48:29.226Z,2.00
2022-11-14T01:51:00.357Z,2.00
2022-11-14T01:53:28.678Z,2.00
2022-11-14T01:56:02.065Z,2.00
2022-11-14T01:58:31.841Z,2.10
2022-11-14T02:01:01.187Z,2.30
2022-11-14T02:03:29.934Z,2.60
2022-11-14T02:05:58.975Z,2.80
2022-11-14T02:08:27.890Z,3.00
2022-11-14T02:10:57.511Z,3.10
2022-11-14T02:13:25.521Z,3.20
2022-11-14T02:15:53.649Z,3.30
2022-11-14T02:18:21.644Z,3.40
2022-11-14T02:20:51.049Z,3.40
2022-11-14T02:23:27.729Z,3.50
2022-11-14T02:25:56.578Z,3.50
2022-11-14T02:28:24.973Z,3.60
2022-11-14T02:30:53.027Z,3.60
2022-11-14T02:33:21.036Z,3.50
2022-11-14T02:35:50.489Z,3.40
2022-11-14T02:38:18.586Z,3.40
2022-11-14T02:40:46.617Z,3.30
2022-11-14T02:43:14.597Z,3.30
2022-11-14T02:45:42.716Z,3.40
2022-11-14T02:48:10.847Z,3.40
2022-11-14T02:50:38.865Z,3.50
2022-11-14T02:53:08.477Z,3.40
2022-11-14T02:55:36.672Z,3.40
2022-11-14T02:58:04.660Z,3.40
2022-11-14T03:00:32.724Z,3.40
2022-11-14T03:03:00.867Z,3.30
2022-11-14T03:05:29.068Z,3.30
2022-11-14T03:07:57.392Z,3.30
2022-11-14T03:10:26.975Z,3.30
2022-11-14T03:12:55.434Z,3.40
2022-11-14T03:15:23.613Z,3.40
2022-11-14T03:17:52.061Z,3.40
2022-11-14T03:20:20.618Z,3.40
2022-11-14T03:22:48.613Z,3.50
2022-11-14T03:25:16.791Z,3.50
2022-11-14T03:27:46.182Z,3.40
2022-11-14T03:30:15.582Z,3.40
2022-11-14T03:32:43.732Z,3.30
2022-11-14T03:35:12.200Z,3.30
2022-11-14T03:37:40.222Z,3.30
2022-11-14T03:40:09.901Z,3.30
2022-11-14T03:42:37.877Z,3.30
2022-11-14T03:45:08.091Z,3.20
2022-11-14T03:47:36.073Z,3.10
2022-11-14T03:50:04.540Z,3.00
2022-11-14T03:52:32.608Z,2.90
2022-11-14T03:55:00.583Z,2.80
2022-11-14T03:57:28.586Z,2.80
2022-11-14T03:59:56.608Z,2.80
2022-11-14T04:02:25.958Z,2.80
2022-11-14T04:04:54.102Z,2.80
2022-11-14T04:07:22.376Z,2.80
2022-11-14T04:09:51.904Z,2.80
2022-11-14T04:12:20.062Z,2.80
2022-11-14T04:14:48.038Z,2.80
2022-11-14T04:17:15.984Z,2.80
2022-11-14T04:19:45.287Z,2.80
2022-11-14T04:22:13.276Z,2.90
2022-11-14T04:24:41.303Z,3.00
2022-11-14T04:27:09.378Z,3.00
2022-11-14T04:29:37.372Z,3.00
2022-11-14T04:32:05.937Z,3.10
2022-11-14T04:34:34.527Z,3.10
2022-11-14T04:37:03.949Z,3.10
2022-11-14T04:39:32.029Z,3.10
2022-11-14T04:42:00.081Z,3.00
2022-11-14T04:44:28.115Z,3.10
2022-11-14T04:46:56.143Z,3.30
2022-11-14T04:49:24.228Z,3.30
2022-11-14T04:51:52.309Z,3.30
2022-11-14T04:54:21.752Z,3.40
2022-11-14T04:56:49.812Z,3.30
2022-11-14T04:59:20.855Z,3.40
2022-11-14T05:01:49.196Z,3.30
2022-11-14T05:04:17.384Z,3.20
2022-11-14T05:06:45.423Z,3.20
2022-11-14T05:09:13.519Z,3.10
2022-11-14T05:11:42.906Z,3.10
2022-11-14T05:14:10.931Z,2.90
2022-11-14T05:16:39.002Z,2.90
2022-11-14T05:19:06.956Z,3.00
2022-11-14T05:21:34.941Z,2.90
2022-11-14T05:24:02.985Z,3.00
2022-11-14T05:26:31.030Z,3.10
2022-11-14T05:29:00.403Z,3.20
2022-11-14T05:31:28.415Z,3.20
2022-11-14T05:33:56.474Z,3.30
2022-11-14T05:36:24.482Z,3.20
2022-11-14T05:38:53.048Z,3.20
2022-11-14T05:41:21.406Z,3.10
2022-11-14T05:43:49.380Z,3.10
2022-11-14T05:46:18.791Z,3.20
2022-11-14T05:48:46.760Z,3.20
2022-11-14T05:51:14.900Z,3.20
2022-11-14T05:53:42.924Z,3.30
2022-11-14T05:56:12.462Z,3.40
2022-11-14T05:58:40.968Z,3.30
2022-11-14T06:01:10.919Z,3.40
2022-11-14T06:03:42.679Z,3.40
2022-11-14T06:06:12.240Z,3.40
2022-11-14T06:08:40.644Z,3.70
2022-11-14T06:11:10.688Z,3.80
2022-11-14T06:13:38.788Z,3.90
2022-11-14T06:16:08.877Z,4.10
2022-11-14T06:18:37.879Z,4.20
2022-11-14T06:21:09.200Z,4.30
2022-11-14T06:23:37.373Z,4.50
2022-11-14T06:26:07.637Z,4.40
2022-11-14T06:28:35.910Z,4.40
2022-11-14T06:31:05.306Z,4.40
2022-11-14T06:33:36.108Z,4.50
2022-11-14T06:36:07.974Z,4.50
2022-11-14T06:38:37.526Z,4.60
2022-11-14T06:41:06.772Z,4.80
2022-11-14T06:43:35.277Z,4.90
2022-11-14T06:46:03.958Z,5.00
2022-11-14T06:48:32.777Z,5.10
2022-11-14T06:51:03.551Z,5.30
2022-11-14T06:53:35.003Z,5.40
2022-11-14T06:56:05.418Z,5.50
2022-11-14T06:58:35.215Z,5.50
2022-11-14T07:01:07.412Z,5.60
2022-11-14T07:03:35.809Z,5.60
2022-11-14T07:06:04.841Z,5.50
2022-11-14T07:08:34.964Z,5.50
2022-11-14T07:11:04.644Z,5.40
2022-11-14T07:13:33.509Z,5.40
2022-11-14T07:16:02.065Z,5.40
2022-11-14T07:18:31.867Z,5.30
2022-11-14T07:21:01.461Z,5.30
2022-11-14T07:23:31.110Z,5.30
2022-11-14T07:26:04.515Z,5.30
2022-11-14T07:28:33.000Z,5.30
2022-11-14T07:31:03.639Z,5.30
2022-11-14T07:33:32.595Z,5.30
2022-11-14T07:36:00.651Z,5.20
2022-11-14T07:38:29.242Z,5.10
2022-11-14T07:41:00.089Z,5.10
2022-11-14T07:43:30.730Z,5.00
2022-11-14T07:46:00.944Z,5.00
2022-11-14T07:48:29.489Z,5.20
2022-11-14T07:51:00.576Z,5.40
2022-11-14T07:53:29.299Z,5.60
2022-11-14T07:55:58.037Z,5.80
2022-11-14T07:58:26.121Z,6.10
2022-11-14T08:00:55.669Z,6.30
2022-11-14T08:03:23.646Z,6.40
2022-11-14T08:05:51.660Z,6.50
2022-11-14T08:08:19.751Z,6.50
2022-11-14T08:10:47.767Z,6.50
2022-11-14T08:13:33.243Z,6.50
2022-11-14T08:16:12.399Z,6.60
2022-11-14T08:18:41.680Z,6.60
2022-11-14T08:21:09.827Z,6.70
2022-11-14T08:23:38.743Z,6.70
2022-11-14T08:26:06.949Z,6.80
2022-11-14T08:28:35.176Z,6.80
2022-11-14T08:31:05.072Z,6.70
2022-11-14T08:33:34.463Z,6.80
2022-11-14T08:36:03.064Z,6.80
2022-11-14T08:38:33.327Z,6.80
2022-11-14T08:41:02.007Z,7.00
2022-11-14T08:43:30.060Z,7.10
2022-11-14T08:46:01.533Z,7.20
2022-11-14T08:48:30.877Z,7.40
2022-11-14T08:51:04.330Z,7.50
2022-11-14T08:53:32.823Z,7.50
2022-11-14T08:56:01.041Z,7.50
2022-11-14T08:58:31.137Z,7.60
2022-11-14T09:01:02.201Z,7.60
2022-11-14T09:03:30.393Z,7.70
2022-11-14T09:06:00.079Z,7.70
2022-11-14T09:08:29.165Z,7.80
2022-11-14T09:11:04.875Z,7.80
2022-11-14T09:13:34.454Z,8.00
2022-11-14T09:16:02.934Z,8.00
2022-11-14T09:18:31.668Z,8.10
2022-11-14T09:21:03.028Z,8.10
2022-11-14T09:23:31.620Z,8.20
2022-11-14T09:26:04.002Z,8.20
2022-11-14T09:28:32.237Z,8.30
2022-11-14T09:31:03.734Z,8.30
2022-11-14T09:33:32.126Z,8.40
2022-11-14T09:36:02.297Z,8.40
2022-11-14T09:38:36.976Z,8.50
2022-11-14T09:41:23.384Z,8.60
2022-11-14T09:44:26.427Z,8.60
2022-11-14T09:46:59.722Z,8.70
2022-11-14T09:49:33.092Z,8.80
2022-11-14T09:52:13.305Z,8.90
2022-11-14T09:54:48.974Z,9.00
2022-11-14T09:57:18.937Z,9.20
2022-11-14T09:59:47.437Z,9.30
2022-11-14T10:02:24.246Z,9.30
2022-11-14T10:05:04.131Z,9.40
2022-11-14T10:07:47.118Z,9.50
2022-11-14T10:10:34.383Z,9.70
2022-11-14T10:13:15.995Z,9.80
2022-11-14T10:15:53.039Z,9.90
2022-11-14T10:18:36.757Z,10.00
2022-11-14T10:21:15.883Z,10.20
2022-11-14T10:23:54.084Z,10.40
2022-11-14T10:26:30.077Z,10.70
2022-11-14T10:29:26.093Z,10.90
2022-11-14T10:32:06.179Z,11.00
2022-11-14T10:34:41.757Z,10.90
2022-11-14T10:37:16.681Z,10.70
2022-11-14T10:39:50.228Z,10.70
2022-11-14T10:42:25.637Z,10.80
2022-11-14T10:44:59.107Z,10.80
2022-11-14T10:47:30.592Z,10.90
2022-11-14T10:50:05.877Z,10.90
2022-11-14T10:52:42.542Z,10.90
2022-11-14T10:55:16.132Z,10.90
2022-11-14T10:57:46.240Z,11.20
2022-11-14T11:00:16.948Z,11.50
2022-11-14T11:02:53.510Z,11.60
2022-11-14T11:05:24.447Z,11.60
2022-11-14T11:08:36.217Z,11.80
2022-11-14T11:11:18.836Z,12.10
2022-11-14T11:13:54.137Z,12.30
2022-11-14T11:16:23.912Z,12.30
2022-11-14T11:18:52.349Z,12.30
2022-11-14T11:21:22.785Z,12.50
2022-11-14T11:23:53.204Z,12.50
2022-11-14T11:26:25.724Z,12.60
2022-11-14T11:29:09.313Z,12.70
2022-11-14T11:31:54.316Z,12.60
2022-11-14T11:34:26.288Z,12.70
2022-11-14T11:36:59.811Z,12.70
2022-11-14T11:39:31.294Z,12.60
2022-11-14T11:42:10.198Z,12.50
2022-11-14T11:44:44.789Z,12.40
2022-11-14T11:47:16.473Z,12.40
2022-11-14T11:49:53.485Z,12.40
2022-11-14T11:52:32.098Z,12.30
2022-11-14T11:55:06.213Z,12.30
2022-11-14T11:57:43.739Z,12.30
2022-11-14T12:00:17.598Z,12.30
2022-11-14T12:02:50.445Z,12.20
2022-11-14T12:05:25.344Z,12.10
2022-11-14T12:07:59.532Z,12.00
2022-11-14T12:10:31.474Z,11.90
2022-11-14T12:13:38.495Z,11.90
2022-11-14T12:16:21.767Z,11.80
2022-11-14T12:19:24.543Z,11.90
2022-11-14T12:22:11.672Z,12.10
2022-11-14T12:25:05.611Z,12.30
2022-11-14T12:27:55.806Z,12.60
2022-11-14T12:30:26.087Z,13.00
2022-11-14T12:32:58.614Z,13.10
2022-11-14T12:35:31.641Z,13.60
2022-11-14T12:38:02.147Z,13.90
2022-11-14T12:40:33.002Z,14.10
2022-11-14T12:43:02.739Z,14.00
2022-11-14T12:46:01.347Z,13.80
2022-11-14T12:48:35.120Z,13.50
2022-11-14T12:51:05.189Z,13.40
2022-11-14T12:53:43.896Z,13.30
2022-11-14T12:56:43.627Z,13.20
2022-11-14T12:59:34.989Z,13.30
2022-11-14T13:02:38.774Z,13.40
2022-11-14T13:05:23.405Z,13.30
2022-11-14T13:08:07.265Z,13.30
2022-11-14T13:10:39.158Z,13.20
2022-11-14T13:13:27.467Z,13.20
2022-11-14T13:16:14.505Z,13.20
2022-11-14T13:19:12.986Z,13.20
2022-11-14T13:22:34.135Z,13.10
2022-11-14T13:25:18.674Z,12.90
2022-11-14T13:31:06.979Z,12.70
2022-11-14T13:33:42.014Z,12.70
2022-11-14T13:36:14.983Z,12.80
2022-11-14T13:39:13.267Z,12.70
2022-11-14T13:42:19.532Z,12.80
2022-11-14T13:45:13.080Z,12.80
2022-11-14T13:48:20.618Z,12.80
2022-11-14T13:50:52.326Z,12.90
2022-11-14T13:53:25.723Z,13.00
2022-11-14T13:56:01.097Z,13.20
2022-11-14T13:59:04.991Z,13.30
2022-11-14T14:01:50.022Z,13.30
2022-11-14T14:04:30.575Z,13.30
2022-11-14T14:07:08.524Z,13.30
2022-11-14T14:09:45.163Z,13.40
2022-11-14T14:12:44.701Z,13.40
2022-11-14T14:15:22.172Z,13.30
2022-11-14T14:18:02.553Z,13.20
2022-11-14T14:20:41.410Z,13.10
2022-11-14T14:23:21.637Z,13.00
2022-11-14T14:26:00.003Z,13.00
2022-11-14T14:28:40.579Z,13.10
2022-11-14T14:31:13.741Z,13.10
2022-11-14T14:33:43.412Z,13.10
2022-11-14T14:36:26.594Z,13.10
2022-11-14T14:39:16.221Z,13.30
2022-11-14T14:41:45.873Z,13.20
2022-11-14T14:44:22.912Z,13.10
2022-11-14T14:46:51.177Z,13.10
2022-11-14T14:49:23.137Z,13.00
2022-11-14T14:51:55.810Z,13.00
2022-11-14T14:54:28.605Z,12.90
2022-11-14T14:57:01.151Z,12.80
2022-11-14T14:59:31.065Z,12.60
2022-11-14T15:01:59.605Z,12.50
2022-11-14T15:04:30.108Z,12.60
2022-11-14T15:06:58.487Z,12.60
2022-11-14T15:09:29.622Z,12.60
2022-11-14T15:12:01.377Z,12.60
2022-11-14T15:14:32.741Z,12.50
2022-11-14T15:17:01.456Z,12.40
2022-11-14T15:19:38.424Z,12.40
2022-11-14T15:22:21.453Z,12.50
2022-11-14T15:25:22.118Z,12.40
2022-11-14T15:27:54.192Z,12.30
2022-11-14T15:30:24.860Z,12.20
2022-11-14T15:32:54.969Z,12.10
2022-11-14T15:35:29.277Z,12.20
2022-11-14T15:38:43.167Z,12.20
2022-11-14T15:41:20.861Z,12.10
2022-11-14T15:43:53.169Z,11.90
2022-11-14T15:46:39.987Z,11.70
2022-11-14T15:49:20.052Z,11.40
2022-11-14T15:51:51.306Z,11.30
2022-11-14T15:54:25.058Z,11.20
2022-11-14T15:56:53.812Z,11.10
2022-11-14T15:59:23.502Z,11.10
2022-11-14T16:01:54.000Z,10.90
2022-11-14T16:04:24.982Z,10.90
2022-11-14T16:06:53.151Z,10.60
2022-11-14T16:09:22.330Z,10.40
2022-11-14T16:11:50.443Z,10.30
2022-11-14T16:14:18.562Z,10.30
2022-11-14T16:16:47.903Z,10.40
2022-11-14T16:19:17.381Z,10.40
2022-11-14T16:21:45.687Z,10.30
2022-11-14T16:24:17.552Z,10.10
2022-11-14T16:26:45.760Z,9.90
2022-11-14T16:29:13.931Z,9.80
2022-11-14T16:31:42.159Z,9.80
2022-11-14T16:34:17.039Z,9.90
2022-11-14T16:36:46.108Z,10.10
2022-11-14T16:39:14.446Z,10.20
2022-11-14T16:41:42.703Z,10.10
2022-11-14T16:44:16.099Z,10.10
2022-11-14T16:46:44.318Z,10.00
2022-11-14T16:49:19.583Z,9.90
2022-11-14T16:51:50.603Z,9.80
2022-11-14T16:54:20.111Z,9.70
2022-11-14T16:56:48.590Z,9.80
2022-11-14T16:59:17.160Z,9.80
2022-11-14T17:01:46.002Z,9.90
2022-11-14T17:04:14.097Z,9.90
2022-11-14T17:06:43.609Z,9.90
2022-11-14T17:09:14.468Z,9.90
2022-11-14T17:11:44.014Z,9.90
2022-11-14T17:14:12.177Z,9.70
2022-11-14T17:16:40.167Z,9.70
2022-11-14T17:19:08.717Z,9.80
2022-11-14T17:21:36.742Z,9.60
2022-11-14T17:24:06.968Z,9.60
2022-11-14T17:26:35.196Z,9.60
2022-11-14T17:29:03.449Z,9.60
2022-11-14T17:31:37.477Z,9.80
2022-11-14T17:34:06.345Z,9.80
2022-11-14T17:36:35.301Z,9.70
2022-11-14T17:39:03.309Z,9.60
2022-11-14T17:41:33.649Z,9.40
2022-11-14T17:44:03.571Z,9.40
2022-11-14T17:46:31.989Z,9.50
2022-11-14T17:49:00.374Z,9.60
2022-11-14T17:51:28.769Z,9.60
2022-11-14T17:53:57.148Z,9.70
2022-11-14T17:56:26.787Z,9.70
2022-11-14T17:58:56.406Z,9.70
2022-11-14T18:01:26.083Z,9.70
2022-11-14T18:03:54.347Z,9.90
2022-11-14T18:06:24.307Z,10.00
2022-11-14T18:08:55.554Z,10.10
2022-11-14T18:11:24.098Z,10.20
2022-11-14T18:13:56.843Z,10.40
2022-11-14T18:16:28.638Z,10.40
2022-11-14T18:19:07.912Z,10.40
2022-11-14T18:21:38.548Z,10.40
2022-11-14T18:24:07.212Z,10.50
2022-11-14T18:26:35.274Z,10.50
2022-11-14T18:29:04.894Z,10.80
2022-11-14T18:31:33.082Z,10.90
2022-11-14T18:34:02.713Z,10.90
2022-11-14T18:36:30.758Z,11.00
2022-11-14T18:38:58.924Z,11.00
2022-11-14T18:41:27.204Z,10.80
2022-11-14T18:43:56.456Z,10.70
2022-11-14T18:46:26.739Z,10.60
2022-11-14T18:48:57.008Z,10.60
2022-11-14T18:51:27.422Z,10.50
2022-11-14T18:53:57.739Z,10.40
2022-11-14T18:56:26.749Z,10.40
2022-11-14T18:58:56.081Z,10.40
2022-11-14T19:01:29.219Z,10.40
2022-11-14T19:03:59.567Z,10.30
2022-11-14T19:06:28.861Z,10.20
2022-11-14T19:08:58.064Z,10.20
2022-11-14T19:11:44.089Z,10.20
2022-11-14T19:14:13.526Z,10.20
2022-11-14T19:16:43.168Z,10.00
2022-11-14T19:19:12.169Z,9.90
2022-11-14T19:21:41.063Z,9.80
2022-11-14T19:24:10.060Z,9.70
2022-11-14T19:26:38.391Z,9.60
2022-11-14T19:29:10.410Z,9.50
2022-11-14T19:31:38.391Z,9.40
2022-11-14T19:34:08.244Z,9.40
2022-11-14T19:36:58.919Z,9.30
2022-11-14T19:39:25.852Z,9.20
2022-11-14T19:41:54.104Z,9.10
2022-11-14T19:44:22.100Z,9.10
2022-11-14T19:46:50.410Z,9.20
2022-11-14T19:49:20.229Z,9.40
2022-11-14T19:51:48.882Z,9.40
2022-11-14T19:54:17.100Z,9.50
2022-11-14T19:56:45.236Z,9.50
2022-11-14T19:59:16.166Z,9.50
2022-11-14T20:01:46.664Z,9.50
2022-11-14T20:04:15.266Z,9.50
2022-11-14T20:06:44.847Z,9.40
2022-11-14T20:09:13.417Z,9.30
2022-11-14T20:11:41.542Z,9.20
2022-11-14T20:14:11.713Z,9.20
2022-11-14T20:16:40.021Z,9.20
2022-11-14T20:19:08.226Z,9.30
2022-11-14T20:21:36.457Z,9.20
2022-11-14T20:24:06.400Z,9.10
2022-11-14T20:26:37.157Z,9.20
2022-11-14T20:29:07.109Z,9.20
2022-11-14T20:31:35.211Z,9.30
2022-11-14T20:34:03.241Z,9.40
2022-11-14T20:36:50.023Z,9.40
2022-11-14T20:39:20.765Z,9.30
2022-11-14T20:41:49.161Z,9.20
2022-11-14T20:44:18.926Z,9.10
2022-11-14T20:46:46.894Z,9.10
2022-11-14T20:49:15.011Z,9.10
2022-11-14T20:51:43.043Z,9.20
2022-11-14T20:54:11.225Z,9.10
2022-11-14T20:56:40.719Z,9.10
2022-11-14T20:59:08.974Z,9.10
2022-11-14T21:01:43.276Z,9.20
2022-11-14T21:04:12.149Z,9.20
2022-11-14T21:06:40.651Z,9.30
2022-11-14T21:09:09.453Z,9.30
2022-11-14T21:11:37.468Z,9.30
2022-11-14T21:14:08.961Z,9.60
2022-11-14T21:16:38.600Z,9.70
2022-11-14T21:19:07.700Z,9.80
2022-11-14T21:21:38.477Z,9.90
2022-11-14T21:24:07.298Z,9.90
2022-11-14T21:26:38.567Z,9.90
2022-11-14T21:29:11.069Z,9.90
2022-11-14T21:31:40.787Z,9.90
2022-11-14T21:34:12.270Z,9.80
2022-11-14T21:36:45.507Z,9.70
2022-11-14T21:39:16.299Z,9.60
2022-11-14T21:41:45.585Z,9.50
2022-11-14T21:44:16.826Z,9.40
2022-11-14T21:46:47.057Z,9.30
2022-11-14T21:49:15.358Z,9.30
2022-11-14T21:51:43.565Z,9.10
2022-11-14T21:54:11.647Z,9.00
2022-11-14T21:56:39.655Z,8.90
2022-11-14T21:59:16.258Z,8.90
2022-11-14T22:02:03.487Z,8.90
2022-11-14T22:04:32.460Z,8.70
2022-11-14T22:07:02.081Z,8.70
2022-11-14T22:09:31.003Z,8.60
2022-11-14T22:11:59.922Z,8.60
2022-11-14T22:14:30.269Z,8.50
2022-11-14T22:16:58.914Z,8.60
2022-11-14T22:19:27.016Z,8.60
2022-11-14T22:21:55.300Z,8.70
2022-11-14T22:24:23.649Z,8.60
2022-11-14T22:26:51.720Z,8.60
2022-11-14T22:29:19.984Z,8.60
2022-11-14T22:31:52.872Z,8.70
2022-11-14T22:34:21.137Z,8.60
2022-11-14T22:36:49.260Z,8.50
2022-11-14T22:39:17.338Z,8.40
2022-11-14T22:41:45.398Z,8.30
2022-11-14T22:44:13.514Z,8.20
2022-11-14T22:46:41.513Z,8.00
2022-11-14T22:49:10.948Z,8.10
2022-11-14T22:51:38.923Z,8.20
2022-11-14T22:54:10.260Z,8.20
2022-11-14T22:56:38.377Z,8.20
2022-11-14T22:59:06.475Z,8.20
2022-11-14T23:01:34.579Z,8.10
2022-11-14T23:04:04.342Z,8.10
2022-11-14T23:06:34.955Z,8.10
2022-11-14T23:09:03.536Z,8.20
2022-11-14T23:11:33.479Z,8.20
2022-11-14T23:14:02.310Z,8.10
2022-11-14T23:16:31.949Z,8.20
2022-11-14T23:19:02.254Z,8.20
2022-11-14T23:21:31.847Z,8.30
2022-11-14T23:24:03.748Z,8.30
2022-11-14T23:26:33.093Z,8.30
2022-11-14T23:29:01.661Z,8.40
2022-11-14T23:31:29.826Z,8.50
2022-11-14T23:33:58.854Z,8.60
2022-11-14T23:36:27.015Z,8.70
2022-11-14T23:38:55.253Z,8.70
2022-11-14T23:41:26.678Z,8.80
2022-11-14T23:43:54.730Z,8.80
2022-11-14T23:46:22.779Z,8.90
2022-11-14T23:48:53.206Z,9.00
2022-11-14T23:51:21.277Z,9.00
2022-11-14T23:53:49.198Z,9.20
2022-11-14T23:56:17.174Z,9.30
2022-11-14T23:58:47.080Z,9.30
